Time,TemperatureF,DewpointF,PressureIn,WindDirection,WindDirectionDegrees,WindSpeedMPH,WindSpeedGustMPH,Humidity,HourlyPrecipIn,Conditions,Clouds,dailyrainin,SoftwareType,DateUTC
2013-03-19 00:02:00,46.4,43.9,30.04,West,269,0.0,4.0,91,0.00,,,0.00,meteohub,2013-03-19 07:02:00,
2013-03-19 00:07:00,46.4,43.9,30.04,West,269,2.0,3.0,91,0.00,,,0.00,meteohub,2013-03-19 07:07:00,
2013-03-19 00:12:00,46.6,44.1,30.04,West,269,2.0,3.0,91,0.00,,,0.00,meteohub,2013-03-19 07:12:00,
2013-03-19 00:17:00,46.6,43.9,30.04,West,269,1.0,3.0,90,0.00,,,0.00,meteohub,2013-03-19 07:17:00,
2013-03-19 00:22:00,46.8,44.1,30.04,West,269,2.0,3.0,90,0.00,,,0.00,meteohub,2013-03-19 07:22:00,
2013-03-19 00:27:00,46.9,43.9,30.04,West,269,0.0,3.0,89,0.00,,,0.00,meteohub,2013-03-19 07:27:00,
2013-03-19 00:32:00,47.1,43.7,30.04,West,269,0.0,3.0,88,0.00,,,0.00,meteohub,2013-03-19 07:32:00,
2013-03-19 00:37:00,47.3,43.7,30.04,West,269,0.0,3.0,87,0.00,,,0.00,meteohub,2013-03-19 07:37:00,
2013-03-19 00:42:00,47.8,43.9,30.04,West,269,0.0,1.0,86,0.00,,,0.00,meteohub,2013-03-19 07:42:00,
2013-03-19 00:47:00,48.6,43.9,30.04,West,269,0.0,1.0,84,0.00,,,0.00,meteohub,2013-03-19 07:47:00,
2013-03-19 00:52:00,49.3,43.7,30.04,West,269,0.0,2.0,81,0.00,,,0.00,meteohub,2013-03-19 07:52:00,
2013-03-19 01:02:00,50.2,43.3,30.04,West,269,2.0,3.0,77,0.00,,,0.00,meteohub,2013-03-19 08:02:00,
2013-03-19 01:07:00,50.4,43.2,30.04,West,269,2.0,4.0,76,0.00,,,0.00,meteohub,2013-03-19 08:07:00,
2013-03-19 01:17:00,50.5,42.6,30.04,West,269,0.0,4.0,74,0.00,,,0.00,meteohub,2013-03-19 08:17:00,
2013-03-19 01:22:00,50.7,42.4,30.04,West,269,0.0,4.0,73,0.00,,,0.00,meteohub,2013-03-19 08:22:00,
2013-03-19 01:27:00,51.1,42.1,30.04,West,269,0.0,3.0,71,0.00,,,0.00,meteohub,2013-03-19 08:27:00,
2013-03-19 01:37:00,50.7,42.1,30.04,West,269,0.0,2.0,72,0.00,,,0.00,meteohub,2013-03-19 08:37:00,
2013-03-19 01:42:00,50.7,42.1,30.04,West,269,0.0,2.0,72,0.00,,,0.00,meteohub,2013-03-19 08:42:00,
2013-03-19 01:47:00,50.5,41.5,30.04,West,269,0.0,2.0,71,0.00,,,0.00,meteohub,2013-03-19 08:47:00,
2013-03-19 01:52:00,50.7,41.7,30.04,West,269,0.0,2.0,71,0.00,,,0.00,meteohub,2013-03-19 08:52:00,
2013-03-19 01:57:00,51.1,41.7,30.04,West,269,0.0,2.0,70,0.00,,,0.00,meteohub,2013-03-19 08:57:00,
2013-03-19 02:07:00,51.1,41.2,30.04,West,269,0.0,1.0,69,0.00,,,0.00,meteohub,2013-03-19 09:07:00,
2013-03-19 02:12:00,51.1,42.4,30.03,West,269,1.0,0.0,72,0.00,,,0.00,meteohub,2013-03-19 09:12:00,
2013-03-19 02:17:00,51.3,41.0,30.03,West,269,1.0,2.0,68,0.00,,,0.00,meteohub,2013-03-19 09:17:00,
2013-03-19 02:27:00,51.1,41.2,30.04,West,269,1.0,3.0,69,0.00,,,0.00,meteohub,2013-03-19 09:27:00,
2013-03-19 02:32:00,51.1,41.2,30.04,West,269,0.0,3.0,69,0.00,,,0.00,meteohub,2013-03-19 09:32:00,
2013-03-19 02:37:00,51.4,41.2,30.04,West,269,0.0,3.0,68,0.00,,,0.00,meteohub,2013-03-19 09:37:00,
2013-03-19 02:47:00,50.5,41.5,30.03,West,269,1.0,5.0,71,0.00,,,0.00,meteohub,2013-03-19 09:47:00,
2013-03-19 02:52:00,49.6,41.4,30.03,West,269,2.0,5.0,73,0.00,,,0.00,meteohub,2013-03-19 09:52:00,
2013-03-19 02:57:00,49.8,40.8,30.03,West,269,0.0,5.0,71,0.00,,,0.00,meteohub,2013-03-19 09:57:00,
2013-03-19 03:07:00,50.0,41.7,30.03,West,269,1.0,3.0,73,0.00,,,0.00,meteohub,2013-03-19 10:07:00,
2013-03-19 03:12:00,49.6,41.4,30.03,West,269,0.0,3.0,73,0.00,,,0.00,meteohub,2013-03-19 10:12:00,
2013-03-19 03:17:00,49.6,41.7,30.03,West,269,0.0,3.0,74,0.00,,,0.00,meteohub,2013-03-19 10:17:00,
2013-03-19 03:22:00,49.6,41.4,30.03,West,269,0.0,3.0,73,0.00,,,0.00,meteohub,2013-03-19 10:22:00,
2013-03-19 03:27:00,49.6,40.6,30.02,West,269,0.0,3.0,71,0.00,,,0.00,meteohub,2013-03-19 10:27:00,
2013-03-19 03:37:00,50.2,40.5,30.02,West,269,0.0,1.0,69,0.00,,,0.00,meteohub,2013-03-19 10:37:00,
2013-03-19 03:47:00,50.5,40.5,30.01,West,269,0.0,0.0,68,0.00,,,0.00,meteohub,2013-03-19 10:47:00,
2013-03-19 03:52:00,50.4,41.0,30.01,West,269,0.0,2.0,70,0.00,,,0.00,meteohub,2013-03-19 10:52:00,
2013-03-19 03:57:00,50.2,40.5,30.02,West,269,1.0,2.0,69,0.00,,,0.00,meteohub,2013-03-19 10:57:00,
2013-03-19 04:07:00,49.5,41.2,30.02,West,269,0.0,2.0,73,0.00,,,0.00,meteohub,2013-03-19 11:07:00,
2013-03-19 04:17:00,48.4,41.5,30.01,West,269,0.0,1.0,77,0.00,,,0.00,meteohub,2013-03-19 11:17:00,
2013-03-19 04:22:00,48.0,41.2,30.01,West,269,0.0,1.0,77,0.00,,,0.00,meteohub,2013-03-19 11:22:00,
2013-03-19 04:27:00,48.0,41.5,30.01,West,269,0.0,1.0,78,0.00,,,0.00,meteohub,2013-03-19 11:27:00,
2013-03-19 04:32:00,48.0,41.5,30.01,West,269,0.0,1.0,78,0.00,,,0.00,meteohub,2013-03-19 11:32:00,
2013-03-19 04:42:00,47.8,41.7,30.01,West,269,0.0,0.0,79,0.00,,,0.00,meteohub,2013-03-19 11:42:00,
2013-03-19 04:52:00,47.7,41.7,30.01,West,269,0.0,0.0,80,0.00,,,0.00,meteohub,2013-03-19 11:52:00,
2013-03-19 04:57:00,47.5,41.9,30.02,West,269,1.0,1.0,81,0.00,,,0.00,meteohub,2013-03-19 11:57:00,
2013-03-19 05:02:00,47.1,41.5,30.02,West,269,0.0,1.0,81,0.00,,,0.00,meteohub,2013-03-19 12:02:00,
2013-03-19 05:07:00,46.9,41.7,30.02,West,269,0.0,1.0,82,0.00,,,0.00,meteohub,2013-03-19 12:07:00,
2013-03-19 05:12:00,46.6,41.7,30.02,West,269,0.0,1.0,83,0.00,,,0.00,meteohub,2013-03-19 12:12:00,
2013-03-19 05:17:00,46.2,41.7,30.02,West,269,0.0,1.0,84,0.00,,,0.00,meteohub,2013-03-19 12:17:00,
2013-03-19 05:22:00,46.0,41.7,30.02,West,269,1.0,1.0,85,0.00,,,0.00,meteohub,2013-03-19 12:22:00,
2013-03-19 05:27:00,46.0,41.7,30.02,West,269,1.0,2.0,85,0.00,,,0.00,meteohub,2013-03-19 12:27:00,
2013-03-19 05:32:00,46.0,41.7,30.02,West,269,0.0,2.0,85,0.00,,,0.00,meteohub,2013-03-19 12:32:00,
2013-03-19 05:37:00,46.2,41.9,30.02,West,269,0.0,2.0,85,0.00,,,0.00,meteohub,2013-03-19 12:37:00,
2013-03-19 05:42:00,46.4,42.1,30.02,West,269,0.0,2.0,85,0.00,,,0.00,meteohub,2013-03-19 12:42:00,
2013-03-19 05:47:00,46.6,42.1,30.02,West,269,0.0,2.0,84,0.00,,,0.00,meteohub,2013-03-19 12:47:00,
2013-03-19 05:52:00,46.6,42.1,30.02,West,269,0.0,2.0,84,0.00,,,0.00,meteohub,2013-03-19 12:52:00,
2013-03-19 05:57:00,46.6,42.1,30.03,West,269,0.0,1.0,84,0.00,,,0.00,meteohub,2013-03-19 12:57:00,
2013-03-19 06:02:00,46.6,42.1,30.03,West,269,0.0,1.0,84,0.00,,,0.00,meteohub,2013-03-19 13:02:00,
2013-03-19 06:07:00,46.8,42.4,30.03,West,269,0.0,2.0,85,0.00,,,0.00,meteohub,2013-03-19 13:07:00,
2013-03-19 06:12:00,46.9,42.1,30.02,West,269,3.0,3.0,83,0.00,,,0.00,meteohub,2013-03-19 13:12:00,
2013-03-19 06:22:00,46.9,41.7,30.02,West,269,3.0,5.0,82,0.00,,,0.00,meteohub,2013-03-19 13:22:00,
2013-03-19 06:27:00,47.1,41.9,30.03,West,269,0.0,5.0,82,0.00,,,0.00,meteohub,2013-03-19 13:27:00,
2013-03-19 06:37:00,47.7,42.1,30.03,West,269,2.0,4.0,81,0.00,,,0.00,meteohub,2013-03-19 13:37:00,
2013-03-19 06:47:00,47.5,41.9,30.03,West,269,2.0,4.0,81,0.00,,,0.00,meteohub,2013-03-19 13:47:00,
2013-03-19 06:52:00,47.3,41.7,30.03,West,269,0.0,4.0,81,0.00,,,0.00,meteohub,2013-03-19 13:52:00,
2013-03-19 07:02:00,46.8,41.2,30.03,West,269,0.0,3.0,81,0.00,,,0.00,meteohub,2013-03-19 14:02:00,
2013-03-19 07:07:00,46.4,40.8,30.03,West,269,0.0,3.0,81,0.00,,,0.00,meteohub,2013-03-19 14:07:00,
2013-03-19 07:12:00,45.9,40.6,30.04,West,269,0.0,2.0,82,0.00,,,0.00,meteohub,2013-03-19 14:12:00,
2013-03-19 07:17:00,46.0,41.2,30.04,West,269,0.0,1.0,83,0.00,,,0.00,meteohub,2013-03-19 14:17:00,
2013-03-19 07:22:00,45.9,40.6,30.04,West,269,0.0,1.0,82,0.00,,,0.00,meteohub,2013-03-19 14:22:00,
2013-03-19 07:27:00,45.1,40.3,30.04,West,269,0.0,2.0,83,0.00,,,0.00,meteohub,2013-03-19 14:27:00,
2013-03-19 07:37:00,45.3,41.4,30.04,West,269,0.0,2.0,86,0.00,,,0.00,meteohub,2013-03-19 14:37:00,
2013-03-19 07:42:00,45.7,41.7,30.04,West,269,0.0,2.0,86,0.00,,,0.00,meteohub,2013-03-19 14:42:00,
2013-03-19 07:47:00,46.0,42.1,30.04,West,269,2.0,2.0,86,0.00,,,0.00,meteohub,2013-03-19 14:47:00,
2013-03-19 07:57:00,47.7,42.1,30.04,ESE,113,0.0,3.0,81,0.00,,,0.00,meteohub,2013-03-19 14:57:00,
2013-03-19 08:02:00,48.2,42.6,30.04,NE,48,0.0,3.0,81,0.00,,,0.00,meteohub,2013-03-19 15:02:00,
2013-03-19 08:07:00,48.4,43.2,30.04,SW,216,0.0,3.0,82,0.00,,,0.00,meteohub,2013-03-19 15:07:00,
2013-03-19 08:17:00,47.8,43.0,30.05,East,100,0.0,1.0,83,0.00,,,0.00,meteohub,2013-03-19 15:17:00,
2013-03-19 08:27:00,47.3,42.8,30.05,East,100,0.0,1.0,84,0.00,,,0.00,meteohub,2013-03-19 15:27:00,
2013-03-19 08:32:00,46.9,42.6,30.05,East,100,0.0,0.0,85,0.00,,,0.00,meteohub,2013-03-19 15:32:00,
2013-03-19 08:37:00,47.1,43.2,30.05,East,100,1.0,0.0,86,0.00,,,0.00,meteohub,2013-03-19 15:37:00,
2013-03-19 08:42:00,47.5,43.5,30.05,East,100,0.0,2.0,86,0.00,,,0.00,meteohub,2013-03-19 15:42:00,
2013-03-19 08:47:00,47.8,43.9,30.05,East,100,0.0,2.0,86,0.00,,,0.00,meteohub,2013-03-19 15:47:00,
2013-03-19 08:52:00,48.2,44.2,30.05,East,100,0.0,2.0,86,0.00,,,0.00,meteohub,2013-03-19 15:52:00,
2013-03-19 09:02:00,48.4,44.8,30.06,East,100,1.0,1.0,87,0.00,,,0.00,meteohub,2013-03-19 16:02:00,
2013-03-19 09:07:00,48.6,44.8,30.06,East,100,0.0,3.0,87,0.00,,,0.00,meteohub,2013-03-19 16:07:00,
2013-03-19 09:17:00,49.1,45.1,30.06,East,100,0.0,3.0,86,0.00,,,0.00,meteohub,2013-03-19 16:17:00,
2013-03-19 09:22:00,49.6,45.3,30.06,East,100,1.0,2.0,85,0.00,,,0.00,meteohub,2013-03-19 16:22:00,
2013-03-19 09:27:00,49.8,45.1,30.06,SSW,193,0.0,2.0,84,0.00,,,0.00,meteohub,2013-03-19 16:27:00,
2013-03-19 09:32:00,50.2,45.1,30.06,SSW,193,0.0,2.0,83,0.00,,,0.00,meteohub,2013-03-19 16:32:00,
2013-03-19 09:37:00,50.5,45.0,30.06,SSW,193,0.0,2.0,81,0.00,,,0.00,meteohub,2013-03-19 16:37:00,
2013-03-19 09:42:00,50.9,45.0,30.07,SSW,193,0.0,1.0,80,0.00,,,0.00,meteohub,2013-03-19 16:42:00,
2013-03-19 09:47:00,51.4,44.4,30.07,North,5,0.0,1.0,77,0.00,,,0.00,meteohub,2013-03-19 16:47:00,
2013-03-19 09:52:00,52.2,45.1,30.07,ESE,116,0.0,1.0,77,0.00,,,0.00,meteohub,2013-03-19 16:52:00,
2013-03-19 10:02:00,53.1,44.2,30.06,NE,46,0.0,1.0,72,0.00,,,0.00,meteohub,2013-03-19 17:02:00,
2013-03-19 10:07:00,53.4,45.3,30.06,NE,46,0.0,1.0,74,0.00,,,0.00,meteohub,2013-03-19 17:07:00,
2013-03-19 10:12:00,53.8,45.7,30.06,NE,46,0.0,1.0,74,0.00,,,0.00,meteohub,2013-03-19 17:12:00,
2013-03-19 10:17:00,54.0,45.9,30.06,NNE,28,0.0,1.0,74,0.00,,,0.00,meteohub,2013-03-19 17:17:00,
2013-03-19 10:22:00,54.1,47.1,30.06,NE,46,4.0,4.0,77,0.00,,,0.00,meteohub,2013-03-19 17:22:00,
2013-03-19 10:27:00,53.4,46.8,30.06,ENE,59,2.0,5.0,78,0.00,,,0.00,meteohub,2013-03-19 17:27:00,
2013-03-19 10:37:00,53.1,47.1,30.06,NE,51,0.0,5.0,80,0.00,,,0.00,meteohub,2013-03-19 17:37:00,
2013-03-19 10:42:00,53.1,47.1,30.06,NE,51,2.0,5.0,80,0.00,,,0.00,meteohub,2013-03-19 17:42:00,
2013-03-19 10:52:00,53.2,47.8,30.06,NE,51,0.0,4.0,82,0.00,,,0.00,meteohub,2013-03-19 17:52:00,
2013-03-19 10:57:00,53.6,47.8,30.06,NE,51,0.0,3.0,81,0.00,,,0.00,meteohub,2013-03-19 17:57:00,
2013-03-19 11:02:00,54.0,48.0,30.06,NE,51,2.0,2.0,80,0.00,,,0.00,meteohub,2013-03-19 18:02:00,
2013-03-19 11:12:00,54.1,47.1,30.06,NE,51,1.0,3.0,77,0.00,,,0.00,meteohub,2013-03-19 18:12:00,
2013-03-19 11:17:00,54.5,47.1,30.06,NE,51,2.0,3.0,76,0.00,,,0.00,meteohub,2013-03-19 18:17:00,
2013-03-19 11:22:00,54.9,47.5,30.06,NE,51,3.0,3.0,76,0.00,,,0.00,meteohub,2013-03-19 18:22:00,
2013-03-19 11:27:00,54.9,47.1,30.06,NE,51,2.0,4.0,75,0.00,,,0.00,meteohub,2013-03-19 18:27:00,
2013-03-19 11:37:00,55.0,46.9,30.06,NNE,14,2.0,4.0,74,0.00,,,0.00,meteohub,2013-03-19 18:37:00,
2013-03-19 11:42:00,55.0,44.6,30.06,NNE,14,0.0,4.0,68,0.00,,,0.00,meteohub,2013-03-19 18:42:00,
2013-03-19 11:52:00,55.6,46.0,30.06,NNE,14,2.0,4.0,70,0.00,,,0.00,meteohub,2013-03-19 18:52:00,
2013-03-19 11:57:00,55.6,46.4,30.07,NNE,14,2.0,4.0,71,0.00,,,0.00,meteohub,2013-03-19 18:57:00,
2013-03-19 12:02:00,55.8,46.6,30.07,NW,325,3.0,4.0,71,0.00,,,0.00,meteohub,2013-03-19 19:02:00,
2013-03-19 12:07:00,55.8,46.0,30.07,WSW,239,4.0,5.0,70,0.00,,,0.00,meteohub,2013-03-19 19:07:00,
2013-03-19 12:17:00,56.1,47.3,30.07,West,267,8.0,8.0,72,0.00,,,0.00,meteohub,2013-03-19 19:17:00,
2013-03-19 12:22:00,55.9,47.1,30.07,WNW,288,5.0,8.0,72,0.00,,,0.00,meteohub,2013-03-19 19:22:00,
2013-03-19 12:32:00,55.9,48.2,30.07,West,269,8.0,9.0,75,0.00,,,0.00,meteohub,2013-03-19 19:32:00,
2013-03-19 12:37:00,55.9,49.1,30.07,WNW,295,9.0,9.0,78,0.00,,,0.00,meteohub,2013-03-19 19:37:00,
2013-03-19 12:42:00,55.9,49.1,30.08,West,276,10.0,11.0,78,0.00,,,0.00,meteohub,2013-03-19 19:42:00,
2013-03-19 12:47:00,55.8,48.7,30.08,West,280,8.0,12.0,77,0.00,,,0.00,meteohub,2013-03-19 19:47:00,
2013-03-19 12:57:00,55.4,47.3,30.07,West,269,8.0,12.0,74,0.00,,,0.00,meteohub,2013-03-19 19:57:00,
2013-03-19 13:02:00,55.0,47.7,30.07,West,273,10.0,11.0,76,0.00,,,0.00,meteohub,2013-03-19 20:02:00,
2013-03-19 13:12:00,54.9,49.1,30.07,WNW,288,9.0,12.0,81,0.00,,,0.00,meteohub,2013-03-19 20:12:00,
2013-03-19 13:22:00,55.0,49.3,30.07,West,263,6.0,12.0,81,0.00,,,0.00,meteohub,2013-03-19 20:22:00,
2013-03-19 13:27:00,54.9,49.1,30.07,West,280,11.0,12.0,81,0.00,,,0.00,meteohub,2013-03-19 20:27:00,
2013-03-19 13:32:00,54.9,48.7,30.07,West,278,8.0,13.0,80,0.00,,,0.00,meteohub,2013-03-19 20:32:00,
2013-03-19 13:37:00,55.0,48.4,30.07,West,273,9.0,13.0,78,0.00,,,0.00,meteohub,2013-03-19 20:37:00,
2013-03-19 13:47:00,54.9,47.5,30.07,WNW,286,7.0,11.0,76,0.00,,,0.00,meteohub,2013-03-19 20:47:00,
2013-03-19 13:52:00,54.9,47.5,30.07,WNW,286,3.0,11.0,76,0.00,,,0.00,meteohub,2013-03-19 20:52:00,
2013-03-19 14:02:00,54.7,46.9,30.06,West,281,6.0,9.0,75,0.00,,,0.00,meteohub,2013-03-19 21:02:00,
2013-03-19 14:07:00,54.7,47.7,30.06,West,281,4.0,8.0,77,0.00,,,0.00,meteohub,2013-03-19 21:07:00,
2013-03-19 14:12:00,54.7,47.7,30.06,West,281,5.0,8.0,77,0.00,,,0.00,meteohub,2013-03-19 21:12:00,
2013-03-19 14:17:00,54.9,48.2,30.06,West,281,2.0,8.0,78,0.00,,,0.00,meteohub,2013-03-19 21:17:00,
2013-03-19 14:22:00,54.9,48.2,30.06,West,281,3.0,6.0,78,0.00,,,0.00,meteohub,2013-03-19 21:22:00,
2013-03-19 14:32:00,54.9,48.7,30.06,WNW,292,3.0,6.0,80,0.00,,,0.00,meteohub,2013-03-19 21:32:00,
2013-03-19 14:37:00,54.9,48.7,30.06,WNW,287,6.0,7.0,80,0.00,,,0.00,meteohub,2013-03-19 21:37:00,
2013-03-19 14:42:00,54.7,48.6,30.06,West,260,6.0,8.0,80,0.00,,,0.00,meteohub,2013-03-19 21:42:00,
2013-03-19 14:47:00,54.7,48.6,30.06,West,261,6.0,11.0,80,0.00,,,0.00,meteohub,2013-03-19 21:47:00,
2013-03-19 14:52:00,54.7,48.6,30.06,WNW,282,4.0,11.0,80,0.00,,,0.00,meteohub,2013-03-19 21:52:00,
2013-03-19 14:57:00,54.7,48.4,30.06,West,277,6.0,9.0,79,0.00,,,0.00,meteohub,2013-03-19 21:57:00,
2013-03-19 15:02:00,54.9,47.8,30.06,West,277,6.0,9.0,77,0.00,,,0.00,meteohub,2013-03-19 22:02:00,
2013-03-19 15:12:00,55.0,47.7,30.05,West,277,4.0,8.0,76,0.00,,,0.00,meteohub,2013-03-19 22:12:00,
2013-03-19 15:17:00,55.0,48.0,30.05,West,277,0.0,6.0,77,0.00,,,0.00,meteohub,2013-03-19 22:17:00,
2013-03-19 15:22:00,55.0,47.7,30.05,West,277,2.0,6.0,76,0.00,,,0.00,meteohub,2013-03-19 22:22:00,
2013-03-19 15:27:00,55.0,48.0,30.05,West,277,3.0,6.0,77,0.00,,,0.00,meteohub,2013-03-19 22:27:00,
2013-03-19 15:32:00,55.0,48.4,30.05,West,277,3.0,4.0,78,0.00,,,0.00,meteohub,2013-03-19 22:32:00,
2013-03-19 15:37:00,55.0,48.0,30.05,West,277,0.0,4.0,77,0.00,,,0.00,meteohub,2013-03-19 22:37:00,
2013-03-19 15:47:00,55.2,48.6,30.05,West,277,0.0,4.0,78,0.00,,,0.00,meteohub,2013-03-19 22:47:00,
2013-03-19 15:52:00,55.2,48.2,30.05,West,277,0.0,1.0,77,0.00,,,0.00,meteohub,2013-03-19 22:52:00,
2013-03-19 15:57:00,55.2,48.6,30.04,West,277,1.0,1.0,78,0.00,,,0.00,meteohub,2013-03-19 22:57:00,
2013-03-19 16:02:00,55.2,48.6,30.04,West,277,2.0,3.0,78,0.00,,,0.00,meteohub,2013-03-19 23:02:00,
2013-03-19 16:07:00,55.2,48.2,30.04,SSW,211,0.0,4.0,77,0.00,,,0.00,meteohub,2013-03-19 23:07:00,
2013-03-19 16:12:00,55.4,48.0,30.04,SSW,211,1.0,4.0,76,0.00,,,0.00,meteohub,2013-03-19 23:12:00,
2013-03-19 16:22:00,55.8,48.7,30.04,SSW,211,3.0,5.0,77,0.00,,,0.00,meteohub,2013-03-19 23:22:00,
2013-03-19 16:27:00,55.6,48.2,30.05,SSW,211,3.0,5.0,76,0.00,,,0.00,meteohub,2013-03-19 23:27:00,
2013-03-19 16:32:00,55.6,47.8,30.05,SSW,211,3.0,5.0,75,0.00,,,0.00,meteohub,2013-03-19 23:32:00,
2013-03-19 16:37:00,55.6,48.2,30.05,SSW,213,4.0,5.0,76,0.00,,,0.00,meteohub,2013-03-19 23:37:00,
2013-03-19 16:42:00,55.8,48.0,30.06,SW,223,6.0,6.0,75,0.00,,,0.00,meteohub,2013-03-19 23:42:00,
2013-03-19 16:47:00,55.9,48.9,30.06,SW,224,5.0,8.0,77,0.00,,,0.00,meteohub,2013-03-19 23:47:00,
2013-03-19 16:57:00,55.9,48.2,30.06,WSW,250,5.0,8.0,75,0.00,,,0.00,meteohub,2013-03-19 23:57:00,
2013-03-19 17:02:00,55.9,48.2,30.06,WSW,251,4.0,8.0,75,0.00,,,0.00,meteohub,2013-03-20 00:02:00,
2013-03-19 17:12:00,55.9,47.8,30.06,WSW,251,7.0,8.0,74,0.00,,,0.00,meteohub,2013-03-20 00:12:00,
2013-03-19 17:17:00,55.9,47.8,30.06,WSW,250,5.0,8.0,74,0.00,,,0.00,meteohub,2013-03-20 00:17:00,
2013-03-19 17:22:00,55.9,47.1,30.06,WSW,246,9.0,9.0,72,0.00,,,0.00,meteohub,2013-03-20 00:22:00,
2013-03-19 17:27:00,55.8,47.3,30.06,WSW,248,9.0,12.0,73,0.00,,,0.00,meteohub,2013-03-20 00:27:00,
2013-03-19 17:32:00,55.4,47.3,30.06,WSW,244,8.0,12.0,74,0.00,,,0.00,meteohub,2013-03-20 00:32:00,
2013-03-19 17:37:00,55.0,46.2,30.06,WSW,244,7.0,12.0,72,0.00,,,0.00,meteohub,2013-03-20 00:37:00,
2013-03-19 17:42:00,54.7,45.1,30.06,WSW,242,8.0,12.0,70,0.00,,,0.00,meteohub,2013-03-20 00:42:00,
2013-03-19 17:47:00,54.1,43.3,30.06,WSW,248,8.0,11.0,67,0.00,,,0.00,meteohub,2013-03-20 00:47:00,
2013-03-19 17:52:00,53.6,43.0,30.06,WSW,253,6.0,10.0,67,0.00,,,0.00,meteohub,2013-03-20 00:52:00,
2013-03-19 17:57:00,53.1,43.2,30.07,West,261,7.0,10.0,69,0.00,,,0.00,meteohub,2013-03-20 00:57:00,
2013-03-19 18:02:00,52.9,42.3,30.07,West,263,4.0,9.0,67,0.00,,,0.00,meteohub,2013-03-20 01:02:00,
2013-03-19 18:12:00,52.7,41.2,30.07,WSW,258,4.0,9.0,65,0.00,,,0.00,meteohub,2013-03-20 01:12:00,
2013-03-19 18:17:00,52.9,41.4,30.07,WSW,258,4.0,9.0,65,0.00,,,0.00,meteohub,2013-03-20 01:17:00,
2013-03-19 18:22:00,52.5,41.5,30.07,West,263,5.0,6.0,66,0.00,,,0.00,meteohub,2013-03-20 01:22:00,
2013-03-19 18:27:00,52.3,39.4,30.08,WSW,239,12.0,12.0,61,0.00,,,0.00,meteohub,2013-03-20 01:27:00,
2013-03-19 18:37:00,52.0,38.1,30.08,SW,234,9.0,17.0,59,0.00,,,0.00,meteohub,2013-03-20 01:37:00,
2013-03-19 18:47:00,51.1,38.5,30.09,WSW,241,5.0,15.0,62,0.00,,,0.00,meteohub,2013-03-20 01:47:00,
2013-03-19 18:52:00,50.7,39.0,30.09,WSW,240,3.0,12.0,64,0.00,,,0.00,meteohub,2013-03-20 01:52:00,
2013-03-19 18:57:00,50.4,39.4,30.08,WSW,240,4.0,10.0,66,0.00,,,0.00,meteohub,2013-03-20 01:57:00,
2013-03-19 19:02:00,50.0,39.9,30.08,WSW,240,5.0,7.0,68,0.00,,,0.00,meteohub,2013-03-20 02:02:00,
2013-03-19 19:07:00,49.5,40.1,30.08,WSW,240,2.0,6.0,70,0.00,,,0.00,meteohub,2013-03-20 02:07:00,
2013-03-19 19:12:00,49.3,40.3,30.08,WSW,240,0.0,6.0,71,0.00,,,0.00,meteohub,2013-03-20 02:12:00,
2013-03-19 19:17:00,49.1,40.1,30.08,WSW,240,0.0,5.0,71,0.00,,,0.00,meteohub,2013-03-20 02:17:00,
2013-03-19 19:22:00,49.1,40.1,30.08,WSW,240,2.0,4.0,71,0.00,,,0.00,meteohub,2013-03-20 02:22:00,
2013-03-19 19:32:00,48.9,40.3,30.08,WSW,240,0.0,3.0,72,0.00,,,0.00,meteohub,2013-03-20 02:32:00,
2013-03-19 19:37:00,48.9,40.3,30.08,WSW,240,0.0,3.0,72,0.01,,,0.01,meteohub,2013-03-20 02:37:00,
2013-03-19 19:42:00,48.7,40.5,30.07,WSW,240,2.0,3.0,73,0.01,,,0.01,meteohub,2013-03-20 02:42:00,
2013-03-19 19:47:00,48.6,41.0,30.07,WSW,240,2.0,3.0,75,0.01,,,0.01,meteohub,2013-03-20 02:47:00,
2013-03-19 19:57:00,47.7,41.2,30.08,WSW,240,1.0,3.0,78,0.03,,,0.03,meteohub,2013-03-20 02:57:00,
2013-03-19 20:02:00,47.5,41.4,30.08,WSW,240,1.0,2.0,79,0.03,,,0.03,meteohub,2013-03-20 03:02:00,
2013-03-19 20:07:00,47.1,41.4,30.08,WSW,240,0.0,2.0,80,0.03,,,0.03,meteohub,2013-03-20 03:07:00,
2013-03-19 20:12:00,46.9,41.4,30.07,WSW,240,0.0,2.0,81,0.03,,,0.03,meteohub,2013-03-20 03:12:00,
2013-03-19 20:17:00,46.9,41.4,30.07,WSW,240,0.0,2.0,81,0.03,,,0.03,meteohub,2013-03-20 03:17:00,
2013-03-19 20:27:00,46.9,41.4,30.06,WSW,240,0.0,0.0,81,0.03,,,0.03,meteohub,2013-03-20 03:27:00,
2013-03-19 20:32:00,46.9,41.2,30.06,WSW,240,2.0,0.0,80,0.03,,,0.03,meteohub,2013-03-20 03:32:00,
2013-03-19 20:37:00,46.9,41.4,30.06,WSW,240,2.0,3.0,81,0.02,,,0.03,meteohub,2013-03-20 03:37:00,
2013-03-19 20:47:00,46.8,41.9,30.06,WSW,240,3.0,4.0,83,0.01,,,0.03,meteohub,2013-03-20 03:47:00,
2013-03-19 20:52:00,46.6,41.7,30.06,WSW,240,3.0,4.0,83,0.01,,,0.03,meteohub,2013-03-20 03:52:00,
2013-03-19 20:57:00,46.4,41.5,30.06,WSW,240,0.0,4.0,83,0.00,,,0.03,meteohub,2013-03-20 03:57:00,
2013-03-19 21:02:00,46.4,41.9,30.06,WSW,240,2.0,4.0,84,0.00,,,0.03,meteohub,2013-03-20 04:02:00,
2013-03-19 21:07:00,46.4,41.9,30.06,WSW,240,2.0,4.0,84,0.00,,,0.03,meteohub,2013-03-20 04:07:00,
2013-03-19 21:12:00,46.4,41.9,30.06,WSW,239,2.0,3.0,84,0.00,,,0.03,meteohub,2013-03-20 04:12:00,
2013-03-19 21:17:00,46.4,41.9,30.06,WSW,238,3.0,3.0,84,0.00,,,0.03,meteohub,2013-03-20 04:17:00,
2013-03-19 21:22:00,46.2,41.9,30.06,SW,231,3.0,4.0,85,0.00,,,0.03,meteohub,2013-03-20 04:22:00,
2013-03-19 21:27:00,46.0,41.7,30.05,SE,145,4.0,4.0,85,0.00,,,0.03,meteohub,2013-03-20 04:27:00,
2013-03-19 21:37:00,46.0,42.4,30.05,East,95,3.0,7.0,87,0.00,,,0.03,meteohub,2013-03-20 04:37:00,
2013-03-19 21:42:00,46.0,42.6,30.04,East,94,5.0,7.0,88,0.00,,,0.03,meteohub,2013-03-20 04:42:00,
2013-03-19 21:47:00,45.9,42.8,30.04,ESE,111,4.0,7.0,89,0.00,,,0.03,meteohub,2013-03-20 04:47:00,
2013-03-19 21:52:00,45.9,42.8,30.04,ESE,118,5.0,8.0,89,0.00,,,0.03,meteohub,2013-03-20 04:52:00,
2013-03-19 21:57:00,45.9,42.8,30.05,ESE,119,5.0,9.0,89,0.01,,,0.04,meteohub,2013-03-20 04:57:00,
2013-03-19 22:07:00,45.7,42.1,30.05,East,101,6.0,9.0,87,0.01,,,0.04,meteohub,2013-03-20 05:07:00,
2013-03-19 22:12:00,45.9,41.9,30.05,East,96,2.0,8.0,86,0.01,,,0.04,meteohub,2013-03-20 05:12:00,
2013-03-19 22:22:00,46.0,41.7,30.05,ESE,103,4.0,7.0,85,0.01,,,0.04,meteohub,2013-03-20 05:22:00,
2013-03-19 22:32:00,45.9,41.9,30.05,ESE,103,4.0,7.0,86,0.01,,,0.04,meteohub,2013-03-20 05:32:00,
2013-03-19 22:37:00,45.7,41.7,30.05,ESE,103,4.0,7.0,86,0.01,,,0.04,meteohub,2013-03-20 05:37:00,
2013-03-19 22:47:00,45.5,41.9,30.05,ESE,103,3.0,5.0,87,0.01,,,0.04,meteohub,2013-03-20 05:47:00,
2013-03-19 22:52:00,45.3,41.7,30.05,East,97,7.0,7.0,87,0.01,,,0.04,meteohub,2013-03-20 05:52:00,
2013-03-19 22:57:00,45.5,41.5,30.05,ENE,78,5.0,7.0,86,0.00,,,0.04,meteohub,2013-03-20 05:57:00,
2013-03-19 23:07:00,45.5,41.9,30.05,East,83,6.0,8.0,87,0.00,,,0.04,meteohub,2013-03-20 06:07:00,
2013-03-19 23:12:00,45.3,41.7,30.04,ENE,78,7.0,8.0,87,0.00,,,0.04,meteohub,2013-03-20 06:12:00,
2013-03-19 23:17:00,45.3,41.7,30.04,East,79,5.0,9.0,87,0.00,,,0.04,meteohub,2013-03-20 06:17:00,
2013-03-19 23:27:00,45.5,41.9,30.04,East,88,8.0,10.0,87,0.00,,,0.04,meteohub,2013-03-20 06:27:00,
2013-03-19 23:32:00,45.5,42.1,30.04,East,96,6.0,10.0,88,0.00,,,0.04,meteohub,2013-03-20 06:32:00,
2013-03-19 23:37:00,45.7,42.3,30.04,East,96,7.0,10.0,88,0.00,,,0.04,meteohub,2013-03-20 06:37:00,
2013-03-19 23:42:00,45.7,42.1,30.04,East,90,8.0,9.0,87,0.00,,,0.04,meteohub,2013-03-20 06:42:00,
2013-03-19 23:47:00,45.9,42.3,30.04,East,88,7.0,9.0,87,0.00,,,0.04,meteohub,2013-03-20 06:47:00,
2013-03-19 23:52:00,45.9,42.3,30.04,East,92,6.0,9.0,87,0.00,,,0.04,meteohub,2013-03-20 06:52:00,